Time;durP1;ratioP1;P1;durP2;ratioP2;P2;SDS_P1;SDS_P2;PMS_P1;PMS_P2;Temp;Humidity;BMP_temperature;BMP_pressure;BME280_temperature;BME280_humidity;BME280_pressure;Samples;Min_cycle;Max_cycle;Signal;HPM_P1;HPM_P2
2022/05/11 00:02:24;;;;;;;5.13;3.08;;;16.70;84.60;;;;;;4985374;28;20061;-78
2022/05/11 00:04:49;;;;;;;5.55;3.45;;;16.70;84.20;;;;;;4985602;28;20073;-78
2022/05/11 00:07:15;;;;;;;5.90;3.30;;;16.70;84.20;;;;;;4984200;28;20088;-79
2022/05/11 00:09:40;;;;;;;4.85;3.22;;;16.60;84.20;;;;;;5004141;28;20030;-80
2022/05/11 00:12:07;;;;;;;5.00;3.05;;;16.70;84.20;;;;;;4986875;28;20532;-80
2022/05/11 00:14:33;;;;;;;5.40;3.42;;;16.60;84.20;;;;;;4985643;28;20600;-80
2022/05/11 00:16:59;;;;;;;5.45;3.60;;;16.70;84.30;;;;;;4999725;28;20055;-80
2022/05/11 00:19:25;;;;;;;5.68;3.10;;;16.70;84.30;;;;;;4966543;28;20041;-80
2022/05/11 00:21:51;;;;;;;5.40;3.20;;;16.70;84.30;;;;;;4987215;28;20030;-80
2022/05/11 00:24:16;;;;;;;6.30;3.20;;;16.60;84.00;;;;;;4987121;28;20019;-80
2022/05/11 00:26:42;;;;;;;5.45;2.97;;;16.60;84.10;;;;;;4981753;28;20049;-80
2022/05/11 00:29:07;;;;;;;5.35;3.10;;;16.70;84.10;;;;;;5007054;28;20060;-80
2022/05/11 00:31:33;;;;;;;4.57;2.90;;;16.70;83.90;;;;;;4989130;28;20035;-79
2022/05/11 00:33:59;;;;;;;4.95;3.10;;;16.80;83.80;;;;;;4988434;28;20022;-82
2022/05/11 00:36:25;;;;;;;5.68;3.20;;;16.80;83.60;;;;;;5004958;28;20033;-80
2022/05/11 00:38:50;;;;;;;4.97;3.22;;;16.80;83.50;;;;;;4987531;28;20026;-79
2022/05/11 00:41:16;;;;;;;4.70;2.90;;;16.80;83.40;;;;;;4987751;28;20034;-79
2022/05/11 00:43:58;;;;;;;5.05;3.33;;;16.80;83.40;;;;;;5004263;28;20052;-79
2022/05/11 00:46:52;;;;;;;4.78;2.90;;;16.80;83.30;;;;;;4985805;28;20018;-80
2022/05/11 00:49:35;;;;;;;4.80;3.00;;;16.80;83.40;;;;;;4980808;28;20075;-79
2022/05/11 00:52:07;;;;;;;4.55;3.03;;;16.80;83.50;;;;;;4966116;28;20027;-79
2022/05/11 00:54:38;;;;;;;5.28;3.03;;;16.70;83.60;;;;;;4982451;28;20587;-80
2022/05/11 00:57:08;;;;;;;5.18;3.30;;;16.70;83.90;;;;;;4983358;28;20462;-80
2022/05/11 00:59:38;;;;;;;6.03;3.43;;;16.70;84.00;;;;;;4982093;28;20110;-80
2022/05/11 01:02:06;;;;;;;4.85;2.90;;;16.70;84.10;;;;;;4981302;28;20313;-79
2022/05/11 01:04:37;;;;;;;5.28;3.20;;;16.70;84.20;;;;;;4980582;28;20042;-79
2022/05/11 01:07:04;;;;;;;5.65;3.25;;;16.70;84.10;;;;;;4984606;28;20030;-79
2022/05/11 01:09:30;;;;;;;5.15;3.00;;;16.70;84.20;;;;;;5000520;28;20091;-78
2022/05/11 01:11:59;;;;;;;5.00;2.90;;;16.60;84.20;;;;;;4981493;28;20053;-79
2022/05/11 01:14:30;;;;;;;5.05;2.83;;;16.60;84.30;;;;;;4963430;28;20034;-79
2022/05/11 01:16:58;;;;;;;5.60;3.20;;;16.60;84.30;;;;;;4981832;28;20041;-80
2022/05/11 01:19:32;;;;;;;4.60;3.00;;;16.60;84.40;;;;;;4982477;28;20038;-79
2022/05/11 01:22:19;;;;;;;5.35;2.97;;;16.60;84.40;;;;;;4982062;28;20043;-79
2022/05/11 01:24:48;;;;;;;5.53;3.08;;;16.60;84.40;;;;;;4976615;28;20486;-80
2022/05/11 01:27:31;;;;;;;5.97;3.50;;;16.60;84.50;;;;;;4965139;28;20551;-79
2022/05/11 01:30:12;;;;;;;4.93;2.83;;;16.60;84.50;;;;;;4981822;28;20102;-79
2022/05/11 01:32:43;;;;;;;5.03;2.90;;;16.60;84.50;;;;;;4982104;28;20034;-79
2022/05/11 01:35:11;;;;;;;4.72;3.03;;;16.60;84.50;;;;;;4981833;28;20031;-81
2022/05/11 01:37:43;;;;;;;6.07;3.28;;;16.60;84.30;;;;;;4983823;28;20026;-81
2022/05/11 01:40:09;;;;;;;4.80;2.90;;;16.70;84.20;;;;;;5006280;28;20030;-80
2022/05/11 01:42:34;;;;;;;4.78;2.92;;;16.70;84.00;;;;;;4983772;28;20054;-80
2022/05/11 01:45:00;;;;;;;6.25;3.15;;;16.70;83.80;;;;;;4987506;28;20018;-79
2022/05/11 01:47:26;;;;;;;4.93;2.95;;;16.80;83.80;;;;;;4975180;28;20389;-80
2022/05/11 01:49:51;;;;;;;4.95;2.53;;;16.80;83.60;;;;;;4970338;28;20042;-79
2022/05/11 01:52:16;;;;;;;4.28;2.80;;;16.80;83.60;;;;;;4979279;28;20422;-79
2022/05/11 01:54:42;;;;;;;4.47;3.00;;;16.80;83.50;;;;;;4985900;28;20556;-80
2022/05/11 01:57:07;;;;;;;4.78;2.95;;;16.80;83.70;;;;;;4982836;28;20039;-81
2022/05/11 01:59:33;;;;;;;4.93;3.08;;;16.70;83.80;;;;;;4966889;28;20022;-80
2022/05/11 02:01:58;;;;;;;4.63;3.00;;;16.70;83.90;;;;;;4985343;28;20030;-79
2022/05/11 02:09:52;;;;;;;5.00;2.97;;;16.70;84.10;;;;;;4994958;28;20077;-81
2022/05/11 02:12:18;;;;;;;5.35;3.10;;;16.70;84.10;;;;;;4984084;28;20137;-79
2022/05/11 02:14:44;;;;;;;4.85;2.97;;;16.70;84.20;;;;;;5001367;28;20077;-80
2022/05/11 02:17:10;;;;;;;4.90;2.90;;;16.70;84.20;;;;;;4985825;28;20027;-79
2022/05/11 02:19:35;;;;;;;4.75;2.78;;;16.60;84.20;;;;;;4982501;28;20465;-80
2022/05/11 02:22:01;;;;;;;4.93;3.00;;;16.60;84.30;;;;;;5001394;28;20073;-79
2022/05/11 02:24:26;;;;;;;4.80;3.00;;;16.60;84.30;;;;;;4996629;28;20080;-79
2022/05/11 02:26:52;;;;;;;4.60;2.83;;;16.60;84.40;;;;;;4983531;28;20033;-79
2022/05/11 02:29:18;;;;;;;5.05;3.03;;;16.60;84.40;;;;;;4981166;28;20037;-79
2022/05/11 02:31:43;;;;;;;4.45;3.00;;;16.60;84.50;;;;;;4982316;28;20069;-80
2022/05/11 02:35:12;;;;;;;4.63;3.10;;;16.60;84.40;;;;;;4985632;28;20046;-81
2022/05/11 02:36:54;;;;;;;6.30;3.28;;;16.60;84.40;;;;;;5003800;28;20030;-80
2022/05/11 02:39:20;;;;;;;4.60;2.95;;;16.60;84.50;;;;;;4991296;28;20045;-81
2022/05/11 02:41:45;;;;;;;5.30;2.70;;;16.60;84.50;;;;;;4986415;28;20401;-80
2022/05/11 02:44:11;;;;;;;4.97;3.05;;;16.60;84.70;;;;;;5003485;28;20027;-80
2022/05/11 02:46:36;;;;;;;5.10;3.08;;;16.70;84.20;;;;;;4985351;28;20023;-81
2022/05/11 02:49:02;;;;;;;4.80;3.03;;;16.70;84.00;;;;;;4999475;28;20101;-80
2022/05/11 02:51:27;;;;;;;4.85;2.90;;;16.80;84.00;;;;;;5002296;28;20041;-80
2022/05/11 02:53:53;;;;;;;4.38;2.80;;;16.70;83.70;;;;;;4965380;28;20482;-79
2022/05/11 02:56:19;;;;;;;4.82;2.97;;;16.80;83.70;;;;;;4981910;28;20033;-79
2022/05/11 02:58:45;;;;;;;3.95;2.60;;;16.80;83.60;;;;;;4983888;28;20062;-81
2022/05/11 03:01:10;;;;;;;5.22;2.80;;;16.80;83.60;;;;;;4985680;28;20022;-80
2022/05/11 03:03:36;;;;;;;4.88;2.80;;;16.80;83.60;;;;;;4987515;28;20023;-80
2022/05/11 03:06:05;;;;;;;3.92;2.60;;;16.70;83.70;;;;;;4986390;28;20033;-79
2022/05/11 03:08:31;;;;;;;4.80;2.97;;;16.70;83.80;;;;;;4972709;28;20034;-80
2022/05/11 03:10:57;;;;;;;3.95;2.50;;;16.70;84.00;;;;;;4982964;28;20078;-79
2022/05/11 03:13:22;;;;;;;4.00;2.40;;;16.70;84.10;;;;;;4983604;28;20035;-78
2022/05/11 03:15:48;;;;;;;4.85;2.78;;;16.70;84.10;;;;;;5001719;28;20061;-79
2022/05/11 03:18:13;;;;;;;4.32;2.60;;;16.70;84.10;;;;;;4983835;28;20515;-79
2022/05/11 03:20:39;;;;;;;5.40;2.80;;;16.70;84.20;;;;;;4995827;28;20018;-79
2022/05/11 03:23:04;;;;;;;4.18;2.60;;;16.70;84.20;;;;;;4980881;28;20031;-79
2022/05/11 03:25:31;;;;;;;4.95;2.80;;;16.60;84.20;;;;;;4983348;28;20050;-79
2022/05/11 03:27:57;;;;;;;5.25;2.97;;;16.60;84.20;;;;;;4990784;28;20104;-79
2022/05/11 03:30:22;;;;;;;4.30;2.75;;;16.60;84.30;;;;;;4982371;28;20049;-79
2022/05/11 03:35:32;;;;;;;4.25;2.70;;;16.60;84.40;;;;;;5000506;28;20488;-79
2022/05/11 03:37:58;;;;;;;4.90;2.80;;;16.60;84.40;;;;;;4983306;28;20030;-79
2022/05/11 03:40:23;;;;;;;4.43;2.75;;;16.60;84.50;;;;;;4982494;28;20035;-79
2022/05/11 03:42:49;;;;;;;4.15;2.55;;;16.60;84.50;;;;;;5000255;28;20081;-79
2022/05/11 03:45:23;;;;;;;5.15;3.00;;;16.60;84.50;;;;;;4979473;28;20054;-79
2022/05/11 03:47:49;;;;;;;7.13;3.10;;;16.60;84.50;;;;;;4980604;28;20026;-78
2022/05/11 03:50:19;;;;;;;4.80;2.80;;;16.60;84.40;;;;;;4991010;28;20485;-79
2022/05/11 03:52:45;;;;;;;4.00;2.58;;;16.70;84.30;;;;;;4983344;28;20030;-79
2022/05/11 03:55:11;;;;;;;5.20;3.00;;;16.70;84.00;;;;;;4963719;28;20081;-79
2022/05/11 03:57:38;;;;;;;4.00;2.50;;;16.70;83.90;;;;;;4969499;28;20513;-79
2022/05/11 04:00:06;;;;;;;5.18;3.08;;;16.70;83.80;;;;;;4979821;28;20030;-79
2022/05/11 04:02:33;;;;;;;4.35;2.60;;;16.80;83.70;;;;;;4964934;28;20026;-79
2022/05/11 04:04:58;;;;;;;4.35;2.67;;;16.80;83.60;;;;;;4964814;28;20409;-79
2022/05/11 04:07:24;;;;;;;4.38;2.75;;;16.80;83.60;;;;;;4968903;28;20033;-79
2022/05/11 04:09:50;;;;;;;4.15;2.60;;;16.80;83.70;;;;;;4979695;28;20098;-79
2022/05/11 04:12:15;;;;;;;3.90;2.38;;;16.70;83.80;;;;;;4980242;28;20030;-79
2022/05/11 04:14:42;;;;;;;4.35;2.70;;;16.70;84.00;;;;;;4978937;28;20026;-80
2022/05/11 04:17:07;;;;;;;4.45;2.80;;;16.70;84.10;;;;;;4997494;28;20034;-79
2022/05/11 04:19:33;;;;;;;4.43;2.58;;;16.70;84.20;;;;;;4979796;28;20034;-79
2022/05/11 04:21:58;;;;;;;4.80;2.90;;;16.70;84.30;;;;;;4979806;28;20022;-79
2022/05/11 04:24:24;;;;;;;5.00;3.08;;;16.70;84.30;;;;;;4979856;28;20031;-78
2022/05/11 04:26:50;;;;;;;4.07;2.60;;;16.60;84.30;;;;;;4980128;28;20026;-79
2022/05/11 04:29:16;;;;;;;4.57;2.53;;;16.60;84.30;;;;;;4977466;28;20113;-79
2022/05/11 04:31:42;;;;;;;3.63;2.40;;;16.60;84.30;;;;;;4977756;28;20058;-78
2022/05/11 04:34:11;;;;;;;4.22;2.60;;;16.60;84.30;;;;;;4982634;28;20030;-78
2022/05/11 04:36:38;;;;;;;4.57;2.60;;;16.60;84.40;;;;;;4983102;28;20076;-79
2022/05/11 04:39:04;;;;;;;4.03;2.47;;;16.60;84.50;;;;;;4982330;28;20030;-79
2022/05/11 04:41:29;;;;;;;5.85;2.70;;;16.60;84.50;;;;;;4998385;28;20030;-78
2022/05/11 04:43:56;;;;;;;3.75;2.30;;;16.60;84.60;;;;;;4982583;28;20215;-79
2022/05/11 04:46:22;;;;;;;3.85;2.53;;;16.60;84.60;;;;;;5005494;28;20018;-80
2022/05/11 04:48:47;;;;;;;4.55;2.90;;;16.60;84.60;;;;;;4990312;28;20022;-79
2022/05/11 04:51:13;;;;;;;4.95;3.08;;;16.60;84.60;;;;;;5003224;28;20259;-80
2022/05/11 04:53:38;;;;;;;5.13;2.78;;;16.60;84.60;;;;;;5001082;28;20031;-79
2022/05/11 04:56:05;;;;;;;4.25;2.50;;;16.60;84.50;;;;;;4965913;28;20026;-81
2022/05/11 04:58:30;;;;;;;3.92;2.50;;;16.70;84.40;;;;;;4975944;28;20828;-81
2022/05/11 05:00:56;;;;;;;4.57;2.67;;;16.70;84.20;;;;;;4981489;28;20030;-80
2022/05/11 05:03:22;;;;;;;4.55;2.90;;;16.70;84.00;;;;;;4982538;28;20090;-78
2022/05/11 05:05:47;;;;;;;4.00;2.60;;;16.80;83.90;;;;;;4983724;28;20478;-79
2022/05/11 05:08:13;;;;;;;5.10;3.00;;;16.80;83.80;;;;;;4993340;28;20074;-79
2022/05/11 05:10:39;;;;;;;4.18;2.75;;;16.80;83.70;;;;;;4975436;28;20053;-79
2022/05/11 05:13:07;;;;;;;4.70;2.75;;;16.80;83.60;;;;;;4981959;28;20026;-78
2022/05/11 05:15:35;;;;;;;5.47;2.90;;;16.80;83.70;;;;;;4996343;28;20077;-76
2022/05/11 05:18:02;;;;;;;4.68;2.80;;;16.80;83.90;;;;;;4975137;28;20053;-75
2022/05/11 05:20:29;;;;;;;4.63;2.80;;;16.70;84.00;;;;;;4974168;28;20500;-77
2022/05/11 05:22:55;;;;;;;4.55;2.80;;;16.70;84.10;;;;;;4976505;28;20032;-78
2022/05/11 05:25:20;;;;;;;4.63;2.67;;;16.70;84.10;;;;;;4978690;28;20109;-78
2022/05/11 05:27:48;;;;;;;4.80;2.90;;;16.70;84.20;;;;;;4996124;28;20648;-79
2022/05/11 05:32:58;;;;;;;3.78;2.40;;;16.70;84.20;;;;;;4996449;28;20089;-79
2022/05/11 05:35:24;;;;;;;5.10;2.63;;;16.70;84.20;;;;;;4978766;28;20023;-77
2022/05/11 05:37:49;;;;;;;4.50;2.83;;;16.70;84.40;;;;;;4979947;28;20796;-79
2022/05/11 05:40:15;;;;;;;4.85;2.90;;;16.70;84.40;;;;;;4978159;28;20033;-79
2022/05/11 05:42:41;;;;;;;4.45;2.85;;;16.70;84.50;;;;;;4977182;28;20030;-80
2022/05/11 05:45:08;;;;;;;5.05;2.67;;;16.60;84.40;;;;;;4993698;28;20030;-80
2022/05/11 05:47:34;;;;;;;5.10;3.00;;;16.70;84.50;;;;;;4975915;28;20081;-79
2022/05/11 05:50:00;;;;;;;4.65;2.90;;;16.70;84.40;;;;;;4976225;28;20034;-79
2022/05/11 05:52:26;;;;;;;4.25;2.58;;;16.70;84.40;;;;;;4975867;28;20022;-80
2022/05/11 05:54:53;;;;;;;5.07;2.92;;;16.70;84.40;;;;;;4998890;28;20101;-79
2022/05/11 05:57:19;;;;;;;4.63;2.80;;;16.70;84.30;;;;;;4999400;28;20452;-79
2022/05/11 05:59:47;;;;;;;4.47;2.72;;;16.70;84.40;;;;;;4999647;28;20027;-80
2022/05/11 06:02:16;;;;;;;4.28;2.70;;;16.70;84.30;;;;;;4997458;28;20010;-80
2022/05/11 06:04:43;;;;;;;4.88;2.80;;;16.70;84.10;;;;;;4975328;28;20034;-80
2022/05/11 06:07:10;;;;;;;4.97;2.72;;;16.80;83.90;;;;;;4998276;28;20031;-80
2022/05/11 06:09:38;;;;;;;5.20;2.90;;;16.80;83.80;;;;;;4980355;28;20061;-78
2022/05/11 06:12:05;;;;;;;3.42;2.22;;;16.80;83.60;;;;;;4980290;28;20031;-79
2022/05/11 06:14:30;;;;;;;4.47;2.75;;;16.90;83.50;;;;;;4979474;28;20029;-78
2022/05/11 06:16:58;;;;;;;7.50;3.13;;;16.90;83.40;;;;;;4976452;28;20026;-81
2022/05/11 06:19:24;;;;;;;8.93;3.08;;;16.90;83.40;;;;;;4974430;28;20031;-80
2022/05/11 06:21:49;;;;;;;5.72;2.85;;;16.90;83.40;;;;;;4981943;28;20489;-82
2022/05/11 06:24:16;;;;;;;9.20;3.35;;;16.90;83.40;;;;;;4976188;28;20023;-80
2022/05/11 06:26:41;;;;;;;6.00;2.95;;;16.80;83.50;;;;;;4995438;28;20022;-79
2022/05/11 06:29:07;;;;;;;6.93;2.63;;;16.80;83.50;;;;;;4987455;28;20549;-79
2022/05/11 06:31:32;;;;;;;6.80;3.20;;;16.80;83.50;;;;;;4987708;28;20069;-79
2022/05/11 06:33:58;;;;;;;5.38;3.25;;;16.80;83.50;;;;;;4986330;28;20040;-80
2022/05/11 06:36:23;;;;;;;7.97;3.35;;;16.80;83.40;;;;;;4986112;28;20042;-79
2022/05/11 06:38:51;;;;;;;5.57;3.08;;;16.90;83.50;;;;;;4986861;28;20445;-81
2022/05/11 06:41:20;;;;;;;5.63;3.00;;;16.80;83.40;;;;;;4986058;28;20026;-79
2022/05/11 06:43:45;;;;;;;7.53;3.13;;;16.90;83.40;;;;;;4985549;28;20094;-79
2022/05/11 06:46:12;;;;;;;5.85;2.85;;;16.90;83.50;;;;;;4985068;28;20544;-78
2022/05/11 06:48:38;;;;;;;7.28;3.13;;;16.90;83.50;;;;;;5002531;28;20098;-79
2022/05/11 06:51:03;;;;;;;6.28;3.20;;;16.90;83.50;;;;;;4984241;28;20097;-79
2022/05/11 06:59:16;;;;;;;5.65;2.70;;;16.90;83.40;;;;;;4983834;28;20034;-79
2022/05/11 06:59:20;;;;;;;6.15;2.90;;;17.00;83.40;;;;;;5007034;28;20040;-80
2022/05/11 07:01:47;;;;;;;8.52;3.20;;;17.00;83.20;;;;;;5005811;28;20026;-80
2022/05/11 07:04:12;;;;;;;4.80;2.85;;;17.00;83.20;;;;;;4987510;28;20030;-80
2022/05/11 07:06:38;;;;;;;5.88;3.00;;;17.00;83.10;;;;;;5005520;28;20033;-79
2022/05/11 07:09:03;;;;;;;6.72;3.33;;;17.00;82.90;;;;;;4987443;28;20501;-79
2022/05/11 07:14:13;;;;;;;6.78;2.80;;;17.20;82.60;;;;;;5003343;28;20041;-79
2022/05/11 07:16:39;;;;;;;6.60;3.20;;;17.20;82.30;;;;;;4986096;28;20023;-79
2022/05/11 07:19:05;;;;;;;5.05;2.88;;;17.20;82.10;;;;;;4984819;28;20086;-80
2022/05/11 07:21:30;;;;;;;6.60;2.95;;;17.30;81.90;;;;;;5002320;28;20043;-79
2022/05/11 07:23:56;;;;;;;6.30;3.28;;;17.30;81.70;;;;;;4983867;28;20029;-79
2022/05/11 07:26:22;;;;;;;5.85;2.90;;;17.30;81.70;;;;;;4983440;28;20018;-79
2022/05/11 07:28:48;;;;;;;5.63;2.95;;;17.30;81.80;;;;;;4983339;28;20026;-79
2022/05/11 07:31:13;;;;;;;6.32;2.97;;;17.30;81.80;;;;;;5000421;28;20048;-79
2022/05/11 07:33:39;;;;;;;5.88;2.88;;;17.30;81.90;;;;;;5000359;28;20371;-79
2022/05/11 07:36:05;;;;;;;5.22;2.78;;;17.30;82.00;;;;;;4981614;28;20102;-80
2022/05/11 07:38:30;;;;;;;5.65;2.63;;;17.30;82.10;;;;;;4981363;28;20401;-79
2022/05/11 07:40:56;;;;;;;5.35;3.00;;;17.30;82.10;;;;;;4981757;28;20018;-80
2022/05/11 07:43:21;;;;;;;6.07;2.95;;;17.30;82.00;;;;;;4981403;28;20500;-80
2022/05/11 07:45:47;;;;;;;5.55;2.80;;;17.30;82.00;;;;;;4981212;28;20030;-79
2022/05/11 07:48:13;;;;;;;4.18;2.60;;;17.30;81.90;;;;;;4981810;28;20046;-78
2022/05/11 07:50:38;;;;;;;4.95;2.70;;;17.30;81.90;;;;;;4981350;28;20114;-80
2022/05/11 07:53:05;;;;;;;4.70;2.65;;;17.30;82.00;;;;;;4981558;28;20022;-79
2022/05/11 07:55:30;;;;;;;4.63;2.55;;;17.30;81.90;;;;;;4998601;28;20023;-79
2022/05/11 08:00:41;;;;;;;4.68;2.67;;;17.40;81.70;;;;;;4998575;28;20034;-79
2022/05/11 08:03:08;;;;;;;4.85;2.78;;;17.40;81.70;;;;;;4998076;28;20035;-79
2022/05/11 08:05:34;;;;;;;5.10;2.55;;;17.40;81.70;;;;;;4979726;28;20032;-79
2022/05/11 08:08:04;;;;;;;6.15;2.95;;;17.50;81.60;;;;;;4999642;28;20489;-78
2022/05/11 08:10:33;;;;;;;6.03;3.03;;;17.50;81.60;;;;;;4984284;28;20029;-79
2022/05/11 08:13:04;;;;;;;4.10;2.60;;;17.50;81.50;;;;;;5004052;28;20562;-80
2022/05/11 08:15:32;;;;;;;;;;;17.50;81.40;;;;;;4992816;28;20026;-80
2022/05/11 08:17:58;;;;;;;5.03;2.50;;;17.60;81.20;;;;;;5009661;28;19925;-80
2022/05/11 08:20:30;;;;;;;4.88;2.90;;;17.60;81.10;;;;;;5008857;28;20456;-80
2022/05/11 08:22:56;;;;;;;;;;;17.70;80.90;;;;;;5008832;28;20018;-79
2022/05/11 08:25:25;;;;;;;4.38;2.60;;;17.70;80.80;;;;;;4988751;28;19941;-79
2022/05/11 08:27:52;;;;;;;4.55;2.58;;;17.70;80.70;;;;;;4990297;28;20026;-79
2022/05/11 08:33:19;;;;;;;4.88;2.38;;;17.70;80.60;;;;;;4976072;28;20559;-79
2022/05/11 08:35:45;;;;;;;4.20;2.53;;;17.70;80.40;;;;;;4988707;28;20037;-80
2022/05/11 08:38:11;;;;;;;4.82;2.78;;;17.70;80.70;;;;;;4989074;28;20490;-80
2022/05/11 08:40:39;;;;;;;4.25;2.50;;;17.70;80.80;;;;;;4988413;28;20026;-79
2022/05/11 08:43:11;;;;;;;4.30;2.40;;;17.70;80.90;;;;;;5005572;28;20019;-80
2022/05/11 08:45:44;;;;;;;4.53;2.53;;;17.70;81.00;;;;;;4987383;28;20113;-79
2022/05/11 08:48:18;;;;;;;4.20;2.50;;;17.70;81.10;;;;;;4986792;28;20041;-80
2022/05/11 08:50:46;;;;;;;4.43;2.58;;;17.60;81.10;;;;;;5004289;28;20102;-80
2022/05/11 08:53:24;;;;;;;4.68;2.72;;;17.60;81.20;;;;;;5003600;28;20033;-79
2022/05/11 08:55:51;;;;;;;4.68;2.40;;;17.60;81.20;;;;;;5002678;28;20032;-80
2022/05/11 08:58:41;;;;;;;5.22;2.78;;;17.60;81.30;;;;;;4985740;28;20092;-79
2022/05/11 09:01:13;;;;;;;5.25;2.83;;;17.60;81.20;;;;;;4985430;28;20058;-79
2022/05/11 09:03:42;;;;;;;5.68;2.80;;;17.60;81.20;;;;;;5003177;28;20397;-79
2022/05/11 09:06:24;;;;;;;4.22;2.50;;;17.60;81.20;;;;;;4984493;28;20034;-79
2022/05/11 09:08:51;;;;;;;4.43;2.70;;;17.60;81.10;;;;;;4988281;28;20030;-80
2022/05/11 09:11:26;;;;;;;3.83;2.40;;;17.70;81.10;;;;;;5009503;28;20375;-81
2022/05/11 09:13:51;;;;;;;4.60;2.72;;;17.70;81.00;;;;;;4990230;28;20026;-81
2022/05/11 09:16:23;;;;;;;4.22;2.55;;;17.70;81.00;;;;;;4988853;28;20050;-80
2022/05/11 09:18:49;;;;;;;4.70;2.55;;;17.70;80.90;;;;;;5006330;28;20680;-81
2022/05/11 09:21:24;;;;;;;4.97;2.60;;;17.80;80.90;;;;;;4988532;28;20057;-81
2022/05/11 09:23:58;;;;;;;5.20;2.60;;;17.80;80.90;;;;;;5005915;28;20249;-82
2022/05/11 09:26:31;;;;;;;4.50;2.58;;;17.80;80.70;;;;;;4987433;28;20054;-79
2022/05/11 09:29:25;;;;;;;4.65;2.47;;;17.80;80.60;;;;;;4987365;28;20022;-81
2022/05/11 09:31:52;;;;;;;3.65;2.42;;;17.90;80.40;;;;;;5003737;28;20485;-79
2022/05/11 09:34:27;;;;;;;5.07;2.67;;;17.90;80.20;;;;;;5002652;28;20026;-78
2022/05/11 09:37:00;;;;;;;4.60;2.63;;;18.00;80.20;;;;;;4991345;28;20037;-81
2022/05/11 09:39:27;;;;;;;3.95;2.53;;;18.00;80.00;;;;;;5007405;28;20400;-81
2022/05/11 09:41:55;;;;;;;4.18;2.30;;;18.00;79.90;;;;;;4988800;28;20113;-81
2022/05/11 09:44:26;;;;;;;4.20;2.47;;;18.00;80.00;;;;;;5005770;28;20018;-82
2022/05/11 09:46:54;;;;;;;6.05;2.95;;;18.00;80.10;;;;;;5006416;28;20592;-80
2022/05/11 09:49:19;;;;;;;4.55;2.58;;;18.00;80.20;;;;;;4988313;28;20058;-80
2022/05/11 09:51:50;;;;;;;5.22;2.88;;;18.00;80.20;;;;;;4988167;28;20034;-81
2022/05/11 09:54:32;;;;;;;4.25;2.42;;;18.00;80.80;;;;;;4987619;28;20397;-81
2022/05/11 09:57:27;;;;;;;5.15;2.83;;;18.00;80.40;;;;;;4987435;28;20616;-79
2022/05/11 10:00:14;;;;;;;4.18;2.50;;;18.00;80.30;;;;;;5001723;28;20131;-80
2022/05/11 10:02:44;;;;;;;5.40;2.45;;;18.00;80.40;;;;;;4985075;28;20118;-78
2022/05/11 10:05:26;;;;;;;4.57;2.75;;;18.00;80.30;;;;;;5003013;28;20034;-79
2022/05/11 10:08:11;;;;;;;4.45;2.65;;;18.00;80.40;;;;;;4985477;28;20023;-79
2022/05/11 10:10:51;;;;;;;4.57;2.72;;;18.00;80.40;;;;;;4984732;28;20026;-79
2022/05/11 10:13:30;;;;;;;5.33;2.53;;;18.00;80.40;;;;;;5002577;28;20030;-78
2022/05/11 10:21:50;;;;;;;4.97;2.50;;;18.00;80.40;;;;;;5001742;28;20619;-80
2022/05/11 10:24:53;;;;;;;3.97;2.30;;;18.00;80.30;;;;;;5000851;28;20039;-80
2022/05/11 10:27:37;;;;;;;5.03;2.90;;;18.00;80.40;;;;;;4983780;28;20048;-79
2022/05/11 10:30:32;;;;;;;5.07;2.80;;;18.00;80.40;;;;;;4982830;28;20057;-79
2022/05/11 10:33:10;;;;;;;4.85;2.72;;;18.00;80.40;;;;;;5000309;28;20023;-78
2022/05/11 10:36:05;;;;;;;4.55;2.70;;;18.10;80.20;;;;;;4982667;28;20053;-78
2022/05/11 10:38:33;;;;;;;5.70;2.50;;;18.10;80.10;;;;;;5000176;28;20030;-78
2022/05/11 10:41:25;;;;;;;4.45;2.50;;;18.10;80.00;;;;;;5000817;28;20490;-79
2022/05/11 10:44:18;;;;;;;4.43;2.72;;;18.10;80.00;;;;;;4982936;28;20644;-78
2022/05/11 10:46:51;;;;;;;5.65;2.92;;;18.10;79.80;;;;;;4981929;28;20490;-78
2022/05/11 10:49:36;;;;;;;4.40;2.63;;;18.10;80.00;;;;;;4982426;28;20034;-78
2022/05/11 10:52:25;;;;;;;4.78;2.83;;;18.10;80.20;;;;;;4981090;28;20053;-80
2022/05/11 10:55:15;;;;;;;3.90;2.50;;;18.10;80.30;;;;;;4981390;28;20030;-80
2022/05/11 10:58:03;;;;;;;3.85;2.53;;;18.10;80.40;;;;;;4981794;28;20030;-79
2022/05/11 11:00:34;;;;;;;4.43;2.30;;;18.00;80.40;;;;;;4989018;28;20165;-78
2022/05/11 11:03:19;;;;;;;4.30;2.55;;;18.00;80.50;;;;;;4981493;28;20027;-80
2022/05/11 11:09:28;;;;;;;4.38;2.45;;;18.00;80.60;;;;;;4998785;28;20036;-78
2022/05/11 11:12:06;;;;;;;5.43;2.75;;;18.00;80.60;;;;;;4947804;28;20396;-78
2022/05/11 11:14:36;;;;;;;4.72;2.85;;;18.00;80.70;;;;;;4981207;28;20557;-78
2022/05/11 11:17:04;;;;;;;5.32;2.83;;;18.00;80.70;;;;;;4986608;28;20049;-80
2022/05/11 11:19:31;;;;;;;4.63;2.63;;;18.00;80.60;;;;;;5006764;28;20041;-80
2022/05/11 11:21:57;;;;;;;4.45;2.40;;;18.10;80.70;;;;;;4987609;28;20022;-79
2022/05/11 11:24:27;;;;;;;5.07;2.90;;;18.00;80.70;;;;;;4986704;28;20033;-79
2022/05/11 11:26:58;;;;;;;5.35;2.70;;;18.00;80.60;;;;;;4986865;28;20068;-80
2022/05/11 11:29:36;;;;;;;4.72;2.80;;;18.00;80.60;;;;;;5003695;28;20030;-79
2022/05/11 11:32:08;;;;;;;4.32;2.50;;;18.00;80.70;;;;;;4987634;28;20045;-80
2022/05/11 11:34:37;;;;;;;4.20;2.40;;;18.10;80.80;;;;;;4987086;28;20033;-80
2022/05/11 11:37:25;;;;;;;4.90;2.70;;;18.00;80.80;;;;;;4988011;28;20030;-80
2022/05/11 11:40:14;;;;;;;4.30;2.50;;;18.00;80.70;;;;;;4986752;28;20053;-80
2022/05/11 11:42:42;;;;;;;4.70;2.40;;;18.10;80.60;;;;;;5003632;28;20026;-80
2022/05/11 11:45:26;;;;;;;3.55;2.35;;;18.10;80.50;;;;;;5003843;28;20066;-79
2022/05/11 11:48:21;;;;;;;4.88;2.90;;;18.10;80.40;;;;;;5003705;28;20022;-80
2022/05/11 11:50:50;;;;;;;5.93;2.80;;;18.10;80.20;;;;;;5002949;28;20053;-81
2022/05/11 11:53:50;;;;;;;5.50;3.03;;;18.10;80.40;;;;;;4984900;28;20053;-80
2022/05/11 11:56:28;;;;;;;4.03;2.47;;;18.00;80.60;;;;;;5002765;28;20030;-78
2022/05/11 11:59:25;;;;;;;4.18;2.53;;;18.00;80.90;;;;;;5002341;28;20127;-79
2022/05/11 12:02:16;;;;;;;4.18;2.60;;;18.00;81.00;;;;;;4952852;28;20034;-80
2022/05/11 12:04:47;;;;;;;4.32;2.70;;;18.00;81.10;;;;;;4969973;28;20445;-78
2022/05/11 12:16:10;;;;;;;4.45;2.45;;;17.90;81.30;;;;;;5000373;28;20033;-79
2022/05/11 12:18:38;;;;;;;5.05;2.80;;;17.90;81.30;;;;;;4982834;28;20030;-78
2022/05/11 12:21:09;;;;;;;4.93;2.58;;;17.90;81.30;;;;;;4982747;28;20057;-79
2022/05/11 12:23:38;;;;;;;4.70;2.45;;;17.90;81.30;;;;;;5000207;28;20022;-78
2022/05/11 12:26:07;;;;;;;4.10;2.58;;;17.90;81.30;;;;;;4999395;28;20420;-79
2022/05/11 12:28:34;;;;;;;4.05;2.50;;;17.90;81.30;;;;;;4981604;28;20019;-79
2022/05/11 12:31:01;;;;;;;5.28;2.50;;;17.90;81.40;;;;;;4999583;28;20425;-78
2022/05/11 12:33:34;;;;;;;4.63;2.60;;;17.90;81.40;;;;;;5000062;28;20022;-80
2022/05/11 12:36:00;;;;;;;4.95;2.60;;;17.90;81.50;;;;;;4999304;28;20027;-78
2022/05/11 12:38:35;;;;;;;4.93;2.53;;;17.90;81.50;;;;;;4999842;28;20050;-78
2022/05/11 12:41:08;;;;;;;4.72;2.70;;;17.90;81.40;;;;;;4981282;28;20030;-78
2022/05/11 12:43:37;;;;;;;4.07;2.30;;;18.00;81.80;;;;;;4981325;28;20030;-78
2022/05/11 12:46:15;;;;;;;4.40;2.50;;;18.00;81.00;;;;;;4980790;28;20046;-79
2022/05/11 12:48:44;;;;;;;4.75;2.40;;;18.00;81.00;;;;;;4980463;28;20177;-78
2022/05/11 12:51:12;;;;;;;4.53;2.58;;;18.00;80.90;;;;;;4998981;28;20026;-80
2022/05/11 12:53:59;;;;;;;4.05;2.22;;;18.00;80.80;;;;;;5004409;28;20018;-81
2022/05/11 12:56:32;;;;;;;4.22;2.33;;;18.00;80.90;;;;;;4990660;28;20029;-80
2022/05/11 12:59:04;;;;;;;5.15;2.55;;;17.90;81.10;;;;;;5007743;28;20061;-80
2022/05/11 13:01:32;;;;;;;4.45;2.40;;;17.90;81.30;;;;;;4989756;28;20512;-80
2022/05/11 13:04:01;;;;;;;4.65;2.55;;;17.90;81.50;;;;;;4989218;28;20478;-80
2022/05/11 13:06:38;;;;;;;4.15;2.47;;;17.90;81.60;;;;;;4987837;28;20025;-79
2022/05/11 13:09:16;;;;;;;3.65;2.20;;;17.80;81.70;;;;;;4987494;28;20026;-79
2022/05/11 13:11:42;;;;;;;4.45;2.50;;;17.80;81.70;;;;;;5005349;28;20026;-78
2022/05/11 13:14:16;;;;;;;4.00;2.30;;;17.80;81.80;;;;;;5004394;28;20034;-80
2022/05/11 13:16:47;;;;;;;4.32;2.33;;;17.80;81.90;;;;;;5005605;28;20048;-78
2022/05/11 13:19:32;;;;;;;3.95;2.22;;;17.80;81.90;;;;;;5004542;28;20077;-79
2022/05/11 13:22:00;;;;;;;4.38;2.40;;;17.80;81.90;;;;;;4986155;28;20057;-79
2022/05/11 13:24:42;;;;;;;4.72;2.67;;;17.80;82.00;;;;;;5004436;28;20030;-79
2022/05/11 13:27:32;;;;;;;4.32;2.50;;;17.80;82.00;;;;;;5004612;28;20077;-80
2022/05/11 13:30:17;;;;;;;3.92;2.20;;;17.70;82.00;;;;;;5005129;28;20100;-79
2022/05/11 13:32:52;;;;;;;4.47;2.40;;;17.80;82.10;;;;;;4983329;28;20065;-80
2022/05/11 13:35:17;;;;;;;5.60;2.30;;;17.80;82.10;;;;;;4982679;28;20026;-79
2022/05/11 13:37:54;;;;;;;4.05;2.38;;;17.70;82.60;;;;;;4999584;28;20041;-78
2022/05/11 13:40:32;;;;;;;5.82;2.45;;;17.80;82.20;;;;;;4980631;28;20030;-76
2022/05/11 13:42:58;;;;;;;3.30;2.25;;;17.80;82.10;;;;;;4980962;28;20105;-80
2022/05/11 13:45:24;;;;;;;4.68;2.50;;;17.80;82.00;;;;;;4979929;28;20023;-78